Latest Weather Observations for Montague Island

IDN60901

Issued at 7:51 pm EST Tuesday 21 April 2015 (issued every 10 minutes, with the page automatically refreshed every 10 minutes)

About weather observations | Map of Canberra area stations | Latest observations for Canberra area | Other Formats
Station Details ID: 069017 Name: MONTAGUE ISLAND LIGHTHOUSE Lat: -36.25 Lon: 150.23 Height: 52.0 m
Data from the previous 72 hours. | See also: Recent months at Montague Island
Date/Time
EST
Tmp

°C
App
Tmp
°C
Dew
Point
°C
Rel
Hum
%
Delta-T

°C
Wind Press
QNH
hPa
Press
MSL
hPa
Rain
since
9 am
mm
Dir
 
Spd
km/h
Gust
km/h
Spd
kts
Gust
kts
21/07:30pm 16.7 5.6 11.4 71 2.9 S 61 78 33 42 1023.3 1023.2 0.8
21/07:00pm 16.8 4.8 10.9 68 3.2 SSE 65 80 35 43 1023.5 1023.4 0.8
21/06:31pm 16.6 5.7 12.2 75 2.4 S 61 80 33 43 1023.8 1023.7 0.8
21/06:30pm 16.9 6.4 12.4 75 2.5 S 59 76 32 41 1023.8 1023.7 0.8
21/06:00pm 16.5 6.6 13.0 80 1.9 S 57 72 31 39 1023.8 1023.7 0.8
21/05:30pm 16.1 4.6 12.7 80 1.9 S 65 78 35 42 1023.4 1023.3 0.8
21/05:00pm 14.1 2.7 11.8 86 1.2 S 63 85 34 46 1023.4 1023.3 0.6
21/04:33pm 16.0 5.4 11.8 76 2.3 S 59 80 32 43 1023.5 1023.4 0.2
21/04:30pm 15.7 5.4 13.0 84 1.5 S 59 76 32 41 1023.7 1023.6 0.2
21/04:21pm 14.6 3.3 10.8 78 2.0 S 61 76 33 41 1023.5 1023.4 0.2
21/04:09pm 16.0 6.2 12.7 81 1.8 S 56 74 30 40 1023.7 1023.6 0.0
21/04:00pm 15.9 4.1 11.9 77 2.2 S 65 80 35 43 1023.5 1023.4 0.0
21/03:51pm 16.2 6.3 12.9 81 1.8 SSE 57 74 31 40 1023.5 1023.4 0.0
21/03:46pm 15.6 4.5 11.6 77 2.2 SSE 61 78 33 42 1023.8 1023.7 0.0
21/03:30pm 16.7 5.2 11.4 71 2.9 S 63 78 34 42 1023.4 1023.3 0.0
21/03:00pm 16.4 4.7 10.9 70 2.9 S 63 83 34 45 1023.6 1023.5 0.0
21/02:51pm 16.9 6.4 11.0 68 3.2 S 57 80 31 43 1023.6 1023.5 0.0
21/02:30pm 16.9 6.1 11.2 69 3.1 S 59 74 32 40 1023.9 1023.8 0.0
21/02:00pm 16.6 6.1 10.9 69 3.0 S 57 78 31 42 1024.3 1024.2 0.0
21/01:40pm 16.9 5.8 10.3 65 3.5 S 59 80 32 43 1024.4 1024.3 0.0
21/01:30pm 16.8 5.4 9.2 61 3.9 S 59 74 32 40 1024.5 1024.4 0.0
21/01:00pm 17.0 6.2 9.9 63 3.7 SSE 57 72 31 39 1025.1 1025.0 0.0
21/12:30pm 16.9 5.6 9.6 62 3.8 S 59 76 32 41 1025.5 1025.4 0.0
21/12:00pm 16.8 5.2 8.2 57 4.4 S 59 76 32 41 1025.9 1025.8 0.0
21/11:30am 16.7 4.6 9.4 62 3.8 S 63 74 34 40 1026.4 1026.3 0.0
21/11:17am 16.7 5.4 9.4 62 3.8 S 59 78 32 42 1026.5 1026.4 0.0
21/11:00am 16.6 5.1 8.6 59 4.1 S 59 72 32 39 1026.8 1026.7 0.0
21/10:33am 16.7 5.7 9.1 61 3.9 S 57 76 31 41 1026.9 1026.8 0.0
21/10:30am 16.9 6.3 10.1 64 3.6 S 56 70 30 38 1027.1 1027.0 0.0
21/10:00am 16.8 5.1 9.2 61 3.9 SSE 61 78 33 42 1027.1 1027.0 0.0
21/09:48am 16.6 5.9 10.2 66 3.4 SSE 57 76 31 41 1027.3 1027.2 0.0
21/09:30am 16.6 4.2 8.3 58 4.2 SSE 63 76 34 41 1027.2 1027.1 0.0
21/09:16am 16.3 5.3 9.0 62 3.8 SSE 57 76 31 41 1027.2 1027.1 0.0
21/09:00am 16.4 5.1 9.6 64 3.5 S 59 76 32 41 1027.3 1027.2 0.4
21/08:43am 15.7 5.7 9.4 66 3.3 SSE 52 70 28 38 1027.4 1027.3 0.4
21/08:30am 15.1 4.2 9.5 69 2.9 S 57 70 31 38 1027.6 1027.5 0.4
21/08:10am 15.8 4.9 9.7 67 3.2 SSE 57 78 31 42 1027.5 1027.4 0.4
21/08:00am 16.2 5.6 8.4 60 3.9 SSE 54 69 29 37 1027.4 1027.3 0.4
21/07:30am 16.4 4.7 7.9 57 4.3 SSE 59 70 32 38 1027.3 1027.2 0.4
21/07:00am 16.3 4.8 8.5 60 4.0 S 59 72 32 39 1027.1 1027.0 0.4
21/06:30am 16.2 5.6 8.4 60 4.0 SSE 54 69 29 37 1026.9 1026.8 0.4
21/06:00am 16.4 4.8 8.1 58 4.2 SSE 59 72 32 39 1027.0 1026.9 0.4
21/05:30am 16.2 5.6 6.9 54 4.6 S 52 65 28 35 1027.1 1027.0 0.4
21/05:00am 16.0 6.2 8.5 61 3.8 S 50 63 27 34 1026.8 1026.7 0.4
21/04:30am 14.4 3.1 11.0 80 1.8 S 61 76 33 41 1026.9 1026.8 0.4
21/04:00am 14.3 3.3 10.7 79 1.9 S 59 74 32 40 1027.0 1026.9 0.4
21/03:30am 14.9 4.2 11.5 80 1.8 SSE 59 72 32 39 1027.0 1026.9 0.2
21/03:16am 14.4 4.5 11.2 81 1.7 SSE 54 72 29 39 1027.1 1027.0 0.2
21/03:06am 15.5 5.8 9.0 65 3.3 SSE 50 70 27 38 1027.4 1027.3 0.2
21/03:00am 15.4 4.4 8.6 64 3.4 SSE 56 70 30 38 1027.4 1027.3 0.2
21/02:36am 15.7 4.7 10.5 71 2.8 SSE 59 78 32 42 1027.4 1027.3 0.2
21/02:30am 16.1 5.1 8.3 60 4.0 SSE 56 69 30 37 1027.5 1027.4 0.2
21/02:00am 16.1 4.3 7.6 57 4.2 SSE 59 69 32 37 1027.7 1027.6 0.2
21/01:30am 16.3 6.0 9.5 64 3.5 SSE 54 65 29 35 1028.0 1027.9 0.2
21/01:05am 15.8 4.3 10.1 69 3.0 SSE 61 80 33 43 1028.4 1028.3 0.2
21/01:00am 15.7 2.9 9.6 67 3.2 SSE 67 80 36 43 1028.2 1028.1 0.2
21/12:43am 16.2 5.2 8.4 60 3.9 SSE 56 76 30 41 1028.1 1028.0 0.2
21/12:30am 16.0 5.3 9.4 65 3.4 SSE 56 69 30 37 1028.4 1028.3 0.2
21/12:00am 16.0 5.0 9.0 63 3.6 SSE 57 70 31 38 1028.5 1028.4 0.2
 
Date/Time
EST
Tmp

°C
App
Tmp
°C
Dew
Point
°C
Rel
Hum
%
Delta-T

°C
Wind Press
QNH
hPa
Press
MSL
hPa
Rain
since
9 am
mm
Dir
 
Spd
km/h
Gust
km/h
Spd
kts
Gust
kts
20/11:30pm 16.1 6.1 9.5 65 3.4 S 52 69 28 37 1029.3 1029.2 0.2
20/11:00pm 15.4 4.1 9.3 67 3.1 S 59 72 32 39 1029.3 1029.2 0.2
20/10:30pm 15.4 4.5 11.0 75 2.3 SSE 59 70 32 38 1029.6 1029.5 0.2
20/10:00pm 15.3 4.4 10.9 75 2.3 S 59 76 32 41 1029.5 1029.4 0.2
20/09:30pm 14.7 4.3 9.1 69 2.9 SSE 54 76 29 41 1029.7 1029.6 0.2
20/09:20pm 15.1 4.8 8.1 63 3.5 SSE 52 70 28 38 1029.9 1029.8 0.2
20/09:00pm 15.2 4.5 10.4 73 2.5 SE 57 74 31 40 1029.8 1029.7 0.2
20/08:30pm 14.8 3.6 11.2 79 1.9 SE 61 78 33 42 1029.2 1029.1 0.0
20/08:08pm 15.0 4.3 11.6 80 1.8 SSE 59 82 32 44 1029.3 1029.2 0.0
20/08:00pm 15.6 4.5 11.4 76 2.2 SSE 61 78 33 42 1029.3 1029.2 0.0
20/07:35pm 16.1 5.6 10.2 68 3.1 SSE 56 76 30 41 1029.3 1029.2 0.0
20/07:30pm 15.8 5.2 10.6 71 2.8 SSE 57 76 31 41 1029.0 1028.9 0.0
20/07:14pm 16.0 6.2 10.1 68 3.1 SSE 52 70 28 38 1029.8 1029.7 0.0
20/07:00pm 16.4 7.2 10.9 70 2.9 SSE 50 67 27 36 1029.7 1029.6 0.0
20/06:30pm 15.8 4.6 9.7 67 3.2 S 59 72 32 39 1029.2 1029.1 0.0
20/06:00pm 16.2 6.2 9.4 64 3.5 S 52 61 28 33 1029.1 1029.0 0.0
20/05:30pm 16.3 5.3 8.5 60 4.0 S 56 72 30 39 1029.3 1029.2 0.0
20/05:00pm 16.4 5.4 8.4 59 4.1 SSE 56 74 30 40 1028.8 1028.7 0.0
20/04:30pm 16.4 4.8 6.8 53 4.7 SSE 57 70 31 38 1028.4 1028.3 0.0
20/04:00pm 16.4 4.3 9.3 63 3.7 SSE 63 78 34 42 1028.4 1028.3 0.0
20/03:30pm 16.3 3.9 9.7 65 3.5 S 65 80 35 43 1027.9 1027.8 0.0
20/03:00pm 16.4 4.8 9.6 64 3.5 S 61 85 33 46 1028.3 1028.2 0.0
20/02:57pm 16.5 5.7 10.1 66 3.4 S 57 76 31 41 1028.6 1028.5 0.0
20/02:30pm 16.5 5.6 9.4 63 3.7 SSE 57 72 31 39 1029.0 1028.9 0.0
20/02:17pm 16.4 4.8 8.1 58 4.2 S 59 78 32 42 1029.0 1028.9 0.0
20/02:00pm 16.5 4.6 8.7 60 4.0 S 61 74 33 40 1028.5 1028.4 0.0
20/01:49pm 16.8 6.2 10.6 67 3.3 SSE 57 76 31 41 1028.3 1028.2 0.0
20/01:30pm 16.6 4.1 9.3 62 3.8 SSE 65 78 35 42 1028.5 1028.4 0.0
20/01:00pm 16.1 4.4 10.8 71 2.8 S 63 78 34 42 1028.9 1028.8 0.0
20/12:43pm 16.8 6.1 9.7 63 3.7 S 56 76 30 41 1028.8 1028.7 0.0
20/12:30pm 16.2 4.9 9.6 65 3.4 S 59 76 32 41 1028.7 1028.6 0.0
20/12:27pm 16.1 5.2 9.5 65 3.4 SSW 57 76 31 41 1028.7 1028.6 0.0
20/12:00pm 15.4 5.7 11.8 79 1.9 SSW 54 70 29 38 1028.9 1028.8 0.0
20/11:49am 15.7 6.0 11.7 77 2.2 SSW 54 72 29 39 1029.4 1029.3 0.0
20/11:30am 15.7 5.5 10.0 69 3.0 SSW 54 69 29 37 1029.7 1029.6 0.0
20/11:02am 14.9 6.0 12.0 83 1.6 SSW 50 69 27 37 1030.1 1030.0 0.0
20/11:00am 14.8 5.9 11.9 83 1.6 SSW 50 67 27 36 1030.2 1030.1 0.0
20/10:30am 15.9 7.1 12.3 79 2.0 SSW 50 70 27 38 1029.9 1029.8 0.0
20/10:22am 15.1 6.2 11.9 81 1.7 SSW 50 70 27 38 1030.0 1029.9 0.0
20/10:00am 14.7 6.1 11.8 83 1.6 SSW 48 65 26 35 1030.6 1030.5 0.0
20/09:54am 14.1 4.3 11.4 84 1.4 SW 54 72 29 39 1030.5 1030.4 0.0
20/09:30am 14.1 3.7 11.3 83 1.5 SSW 57 74 31 40 1030.1 1030.0 0.0
20/09:11am 14.1 4.7 11.6 85 1.3 SSW 52 70 28 38 1030.1 1030.0 0.0
20/09:00am 13.7 3.6 11.8 88 1.0 SSW 56 70 30 38 1029.9 1029.8 1.4
20/08:30am 13.6 2.2 11.7 88 1.0 SW 63 78 34 42 1029.3 1029.2 1.4
20/08:01am 13.0 2.6 11.2 89 1.0 SW 57 76 31 41 1028.9 1028.8 1.4
20/08:00am 13.1 2.3 11.3 89 0.9 SW 59 76 32 41 1029.0 1028.9 1.4
20/07:30am 13.1 2.4 11.7 91 0.7 SSW 59 72 32 39 1028.4 1028.3 1.0
20/07:02am 12.5 1.1 10.6 88 1.0 SSW 61 83 33 45 1028.1 1028.0 0.4
20/07:00am 12.3 0.8 10.2 87 1.1 SSW 61 76 33 41 1028.1 1028.0 0.4
20/06:36am 13.1 2.1 10.5 84 1.4 SSW 59 78 32 42 1027.5 1027.4 0.0
20/06:30am 12.9 0.8 10.6 86 1.2 SW 65 82 35 44 1027.6 1027.5 0.0
20/06:04am 13.0 1.7 9.3 78 1.9 SW 59 82 32 44 1027.7 1027.6 0.0
20/06:00am 13.1 1.9 9.7 80 1.7 SW 59 72 32 39 1028.0 1027.9 0.0
20/05:42am 12.6 1.7 9.6 82 1.5 SW 57 76 31 41 1028.0 1027.9 0.0
20/05:30am 12.6 1.3 9.6 82 1.5 SW 59 76 32 41 1028.0 1027.9 0.0
20/05:00am 12.6 1.2 9.2 80 1.7 SW 59 72 32 39 1028.0 1027.9 0.0
20/04:30am 12.8 1.5 9.3 79 1.8 SW 59 72 32 39 1027.9 1027.8 0.0
20/04:00am 12.5 1.7 9.1 80 1.7 SW 56 72 30 39 1027.7 1027.6 0.0
20/03:30am 12.8 1.8 9.1 78 1.9 SSW 57 70 31 38 1027.6 1027.5 0.0
20/03:16am 12.6 2.3 8.3 75 2.1 SSW 52 72 28 39 1027.8 1027.7 0.0
20/03:00am 12.6 2.4 8.7 77 1.9 SSW 52 67 28 36 1027.4 1027.3 0.0
20/02:30am 12.6 1.7 9.4 81 1.6 SW 57 76 31 41 1027.6 1027.5 0.0
20/02:00am 12.7 1.7 9.2 79 1.8 SW 57 78 31 42 1027.6 1027.5 0.0
20/01:54am 12.4 1.2 8.5 77 1.9 SW 57 78 31 42 1027.4 1027.3 0.0
20/01:30am 12.9 2.1 7.6 70 2.6 SW 54 69 29 37 1027.9 1027.8 0.0
20/01:13am 13.0 1.7 7.0 67 2.9 SW 56 74 30 40 1027.8 1027.7 0.0
20/01:00am 13.4 2.8 8.3 71 2.5 SW 54 69 29 37 1027.8 1027.7 0.0
20/12:41am 13.1 2.2 7.3 68 2.8 SW 54 72 29 39 1027.2 1027.1 0.0
20/12:30am 13.0 1.8 7.7 70 2.6 SW 56 69 30 37 1027.0 1026.9 0.0
20/12:16am 13.2 3.1 7.6 69 2.7 SW 50 69 27 37 1027.7 1027.6 0.0
20/12:00am 13.1 3.4 7.5 69 2.7 SW 48 61 26 33 1028.0 1027.9 0.0
 
Date/Time
EST
Tmp

°C
App
Tmp
°C
Dew
Point
°C
Rel
Hum
%
Delta-T

°C
Wind Press
QNH
hPa
Press
MSL
hPa
Rain
since
9 am
mm
Dir
 
Spd
km/h
Gust
km/h
Spd
kts
Gust
kts
19/11:30pm 12.9 1.6 7.8 71 2.5 SW 57 70 31 38 1028.2 1028.1 0.0
19/11:00pm 13.0 1.8 8.3 73 2.3 SW 57 69 31 37 1027.8 1027.7 0.0
19/10:30pm 13.0 1.3 7.9 71 2.5 SSW 59 76 32 41 1027.6 1027.5 0.0
19/10:21pm 13.0 2.9 7.2 68 2.8 SW 50 76 27 41 1027.9 1027.8 0.0
19/10:00pm 13.2 2.1 8.1 71 2.5 SW 56 70 30 38 1027.8 1027.7 0.0
19/09:36pm 13.1 1.8 7.3 68 2.8 SW 56 76 30 41 1027.2 1027.1 0.0
19/09:30pm 13.1 1.3 7.3 68 2.8 SW 59 74 32 40 1027.1 1027.0 0.0
19/09:00pm 13.2 0.9 7.0 66 3.0 SW 61 82 33 44 1026.5 1026.4 0.0
19/08:59pm 13.2 1.3 7.2 67 2.9 SW 59 82 32 44 1026.4 1026.3 0.0
19/08:30pm 13.5 2.2 7.3 66 3.0 SW 56 69 30 37 1026.7 1026.6 0.0
19/08:00pm 13.4 2.1 7.8 69 2.7 SW 57 70 31 38 1025.6 1025.5 0.0
19/07:41pm 13.6 2.4 8.2 70 2.7 SW 57 78 31 42 1025.5 1025.4 0.0
19/07:30pm 13.8 2.1 8.0 68 2.9 SSW 59 76 32 41 1025.5 1025.4 0.0
19/07:02pm 14.3 3.8 8.9 70 2.7 SSW 54 74 29 40 1025.3 1025.2 0.0
19/07:00pm 14.4 3.7 9.4 72 2.6 SW 56 74 30 40 1025.2 1025.1 0.0
19/06:40pm 14.7 5.7 8.9 68 3.0 SW 46 67 25 36 1024.8 1024.7 0.0
19/06:30pm 14.7 5.4 9.1 69 2.9 SW 48 67 26 36 1024.9 1024.8 0.0
19/06:00pm 14.6 4.9 9.2 70 2.8 SSW 50 65 27 35 1024.4 1024.3 0.0
19/05:57pm 15.1 5.8 7.6 61 3.7 SSW 46 65 25 35 1024.2 1024.1 0.0
19/05:30pm 15.4 7.1 7.9 61 3.8 SW 41 56 22 30 1023.9 1023.8 0.0
19/05:00pm 15.5 6.4 6.8 56 4.3 SW 44 59 24 32 1023.3 1023.2 0.0
19/04:30pm 15.6 6.3 7.6 59 4.0 SSW 46 59 25 32 1022.9 1022.8 0.0
19/04:00pm 15.1 6.7 7.4 60 3.8 SSW 41 54 22 29 1022.7 1022.6 0.0
19/03:30pm 15.1 6.3 7.2 59 3.9 SSW 43 52 23 28 1022.4 1022.3 0.0
19/03:00pm 14.8 5.5 7.6 62 3.6 SSW 46 61 25 33 1022.1 1022.0 0.0
19/02:49pm 15.0 6.8 8.0 63 3.5 SSW 41 61 22 33 1021.9 1021.8 0.0
19/02:30pm 15.0 7.5 8.0 63 3.5 SW 37 50 20 27 1021.7 1021.6 0.0
19/02:00pm 14.9 7.4 7.9 63 3.5 SSW 37 48 20 26 1021.5 1021.4 0.0
19/01:30pm 15.5 6.0 6.8 56 4.3 SW 46 57 25 31 1021.2 1021.1 0.0
19/01:00pm 15.5 7.6 6.2 54 4.5 SW 37 46 20 25 1021.2 1021.1 0.0
19/12:30pm 15.4 7.5 6.2 54 4.5 SW 37 48 20 26 1021.0 1020.9 0.0
19/12:00pm 15.4 6.9 6.9 57 4.2 SW 41 50 22 27 1021.0 1020.9 0.0
19/11:30am 15.4 6.2 6.2 54 4.5 SW 44 52 24 28 1020.7 1020.6 0.0
19/11:00am 15.4 6.5 6.7 56 4.2 SSW 43 54 23 29 1020.6 1020.5 0.0
19/10:30am 15.9 6.9 7.1 56 4.4 SSW 44 57 24 31 1020.1 1020.0 0.0
19/10:00am 15.7 7.0 7.5 58 4.1 SSW 43 56 23 30 1020.0 1019.9 0.0
19/09:30am 15.5 6.7 9.4 67 3.2 SSW 46 57 25 31 1019.8 1019.7 0.0
19/09:00am 15.7 8.4 10.2 70 2.9 SSW 39 50 21 27 1019.6 1019.5 3.0
19/08:30am 15.7 8.0 10.0 69 3.0 SSW 41 52 22 28 1019.1 1019.0 3.0
19/08:00am 15.4 6.8 10.2 71 2.7 S 46 57 25 31 1018.4 1018.3 3.0
19/07:30am 15.9 7.2 11.3 74 2.5 S 48 56 26 30 1017.6 1017.5 3.0
19/07:00am 15.6 7.4 11.6 77 2.2 S 46 59 25 32 1016.9 1016.8 3.0
19/06:30am 15.6 6.7 11.8 78 2.1 S 50 61 27 33 1016.1 1016.0 3.0
19/06:00am 16.1 8.8 12.8 81 1.8 S 43 52 23 28 1015.4 1015.2 3.0
19/05:30am 16.1 8.3 13.0 82 1.7 S 46 57 25 31 1015.0 1014.8 3.0
19/05:00am 16.5 8.0 13.2 81 1.8 S 50 59 27 32 1014.5 1014.3 3.0
19/04:30am 17.1 8.7 13.6 80 2.0 S 50 59 27 32 1013.9 1013.7 3.0
19/04:00am 17.2 9.9 12.7 75 2.5 S 43 54 23 29 1013.5 1013.3 3.0
19/03:30am 17.1 9.7 12.6 75 2.5 S 43 52 23 28 1013.4 1013.2 3.0
19/03:00am 17.2 9.2 12.3 73 2.7 S 46 56 25 30 1012.8 1012.7 3.0
19/02:30am 17.5 10.0 12.8 74 2.6 SSW 44 52 24 28 1012.7 1012.6 3.0
19/02:00am 17.9 11.0 14.4 80 2.0 S 44 56 24 30 1012.8 1012.7 3.0
19/01:30am 17.5 11.0 15.1 86 1.4 S 43 50 23 27 1012.5 1012.4 3.0
19/01:00am 18.6 13.0 17.8 95 0.5 S 44 52 24 28 1012.1 1012.0 2.8
19/12:30am 19.5 16.5 18.7 95 0.5 SSW 32 37 17 20 1011.9 1011.8 2.8
19/12:00am 19.3 18.5 18.0 92 0.8 W 19 20 10 11 1011.4 1011.3 2.8
 
Date/Time
EST
Tmp

°C
App
Tmp
°C
Dew
Point
°C
Rel
Hum
%
Delta-T

°C
Wind Press
QNH
hPa
Press
MSL
hPa
Rain
since
9 am
mm
Dir
 
Spd
km/h
Gust
km/h
Spd
kts
Gust
kts
18/11:30pm 19.6 18.9 18.3 92 0.8 NW 19 24 10 13 1011.1 1011.0 2.8
18/11:00pm 19.7 18.5 18.5 93 0.7 NNW 22 30 12 16 1010.8 1010.7 2.8
18/10:30pm 20.2 17.7 18.9 92 0.8 NNW 30 35 16 19 1011.3 1011.2 2.8
18/10:00pm 20.2 17.7 18.9 92 0.8 N 30 37 16 20 1011.3 1011.2 2.8
18/09:30pm 20.0 17.5 18.8 93 0.8 N 30 37 16 20 1011.5 1011.4 2.4
18/09:00pm 20.1 17.6 18.9 93 0.8 NNE 30 37 16 20 1011.1 1011.0 2.2
18/08:30pm 20.4 16.8 19.4 94 0.6 NNE 37 43 20 23 1011.4 1011.3 2.2
18/08:00pm 20.7 18.6 19.7 94 0.6 N 30 43 16 23 1011.5 1011.4 1.6

Latest Capital City Observations: Canberra | Sydney | Melbourne | Brisbane | Adelaide | Perth | Hobart | Darwin

Other Formats:

Comma delimited format used in spreadsheet applications
http://www.bom.gov.au/fwo/IDN60903/IDN60903.94939.axf

JavaScript Object Notation format (JSON) in row-major order
http://www.bom.gov.au/fwo/IDN60903/IDN60903.94939.json